Time;durP1;ratioP1;P1;durP2;ratioP2;P2;SDS_P1;SDS_P2;PMS_P1;PMS_P2;Temp;Humidity;BMP_temperature;BMP_pressure;BME280_temperature;BME280_humidity;BME280_pressure;Samples;Min_cycle;Max_cycle;Signal;HPM_P1;HPM_P2
2022/09/03 00:00:34;;;;;;;;;;;20.00;74.70;;;;;;5007831;28;19936;-80
2022/09/03 00:03:23;;;;;;;;;;;20.00;74.70;;;;;;5008055;28;20013;-83
2022/09/03 00:06:01;;;;;;;;;;;20.00;76.00;;;;;;4993373;28;20266;-79
2022/09/03 00:08:49;;;;;;;;;;;19.90;76.00;;;;;;5013179;28;19956;-81
2022/09/03 00:11:15;;;;;;;;;;;19.90;75.90;;;;;;5010007;28;20392;-80
2022/09/03 00:13:46;;;;;;;;;;;19.90;75.70;;;;;;5008273;28;19921;-83
2022/09/03 00:16:14;;;;;;;;;;;19.90;75.30;;;;;;5009900;28;20341;-81
2022/09/03 00:18:52;;;;;;;;;;;19.90;75.70;;;;;;5011872;28;19945;-81
2022/09/03 00:21:23;;;;;;;;;;;19.90;75.80;;;;;;5012829;28;19917;-81
2022/09/03 00:23:50;;;;;;;;;;;19.90;76.40;;;;;;5018123;28;19940;-81
2022/09/03 00:26:21;;;;;;;;;;;19.90;76.20;;;;;;5014879;28;20374;-80
2022/09/03 00:28:50;;;;;;;;;;;19.90;76.20;;;;;;5010328;28;19954;-80
2022/09/03 00:31:20;;;;;;;;;;;19.80;76.40;;;;;;5001873;28;19917;-79
2022/09/03 00:33:47;;;;;;;;;;;19.80;76.70;;;;;;5004563;28;19917;-80
2022/09/03 00:36:22;;;;;;;;;;;19.70;76.50;;;;;;5005790;28;19921;-82
2022/09/03 00:38:47;;;;;;;;;;;19.60;77.00;;;;;;5004454;28;19925;-79
2022/09/03 00:41:16;;;;;;;;;;;19.50;77.60;;;;;;5003843;28;19913;-82
2022/09/03 00:43:45;;;;;;;;;;;19.60;77.20;;;;;;5009417;28;19917;-80
2022/09/03 00:46:22;;;;;;;;;;;19.60;76.80;;;;;;5011508;28;19913;-84
2022/09/03 00:48:53;;;;;;;;;;;19.60;76.80;;;;;;5014705;28;19940;-84
2022/09/03 00:51:19;;;;;;;;;;;19.60;77.00;;;;;;5023982;28;19909;-84
2022/09/03 00:54:02;;;;;;;;;;;19.60;77.20;;;;;;5023312;28;19940;-82
2022/09/03 00:56:48;;;;;;;;;;;19.50;77.50;;;;;;5012504;28;20376;-84
2022/09/03 00:59:22;;;;;;;;;;;19.50;77.50;;;;;;5015063;28;19909;-84
2022/09/03 01:02:04;;;;;;;;;;;19.50;77.60;;;;;;5017733;28;19913;-82
2022/09/03 01:04:33;;;;;;;;;;;19.60;77.40;;;;;;5022457;28;19914;-84
2022/09/03 01:07:07;;;;;;;;;;;19.60;77.20;;;;;;5021460;28;19909;-84
2022/09/03 01:09:47;;;;;;;;;;;19.60;77.10;;;;;;5023588;28;19916;-81
2022/09/03 01:12:34;;;;;;;;;;;19.60;76.80;;;;;;5022645;28;19945;-81
2022/09/03 01:15:09;;;;;;;;;;;19.50;77.10;;;;;;5022531;28;19917;-82
2022/09/03 01:17:41;;;;;;;;;;;19.50;77.20;;;;;;5019342;28;19918;-82
2022/09/03 01:20:33;;;;;;;;;;;19.60;77.30;;;;;;5017752;28;20196;-82
2022/09/03 01:23:05;;;;;;;;;;;19.50;77.80;;;;;;5024322;28;19909;-84
2022/09/03 01:25:31;;;;;;;;;;;19.50;78.00;;;;;;5011513;28;20180;-82
2022/09/03 01:28:16;;;;;;;;;;;19.40;78.70;;;;;;5020523;28;20003;-82
2022/09/03 01:30:46;;;;;;;;;;;19.30;79.50;;;;;;5025006;28;19917;-83
2022/09/03 01:33:17;;;;;;;;;;;19.20;79.90;;;;;;5020611;28;19922;-81
2022/09/03 01:35:46;;;;;;;;;;;19.10;80.20;;;;;;5014550;28;19909;-82
2022/09/03 01:38:18;;;;;;;;;;;19.20;80.10;;;;;;5019951;28;19956;-82
2022/09/03 01:40:46;;;;;;;;;;;19.20;79.90;;;;;;5026891;28;19945;-82
2022/09/03 01:43:21;;;;;;;;;;;19.10;79.80;;;;;;5017482;28;19924;-83
2022/09/03 01:45:52;;;;;;;;;;;19.10;80.50;;;;;;5018438;28;19932;-84
2022/09/03 01:48:18;;;;;;;;;;;19.10;80.30;;;;;;5034537;28;19967;-83
2022/09/03 01:50:58;;;;;;;;;;;19.10;80.20;;;;;;5021352;28;19909;-81
2022/09/03 01:53:33;;;;;;;;;;;19.10;80.30;;;;;;5023824;28;19914;-81
2022/09/03 01:56:06;;;;;;;;;;;19.10;80.40;;;;;;5021826;28;19920;-83
2022/09/03 01:58:59;;;;;;;;;;;19.10;80.70;;;;;;5021586;28;19905;-83
2022/09/03 02:01:28;;;;;;;;;;;19.10;80.90;;;;;;5022632;28;19917;-83
2022/09/03 02:03:58;;;;;;;;;;;19.10;80.80;;;;;;5023483;28;19917;-84
2022/09/03 02:06:24;;;;;;;;;;;19.10;80.00;;;;;;5025470;28;19916;-84
2022/09/03 02:08:49;;;;;;;;;;;19.10;80.00;;;;;;5022311;28;19969;-85
2022/09/03 02:11:16;;;;;;;;;;;19.10;79.40;;;;;;5018233;28;19925;-83
2022/09/03 02:13:43;;;;;;;;;;;19.00;79.60;;;;;;5015787;28;19921;-82
2022/09/03 02:16:12;;;;;;;;;;;19.00;79.80;;;;;;5033772;23;19925;-78
2022/09/03 02:18:50;;;;;;;;;;;19.00;79.90;;;;;;5030418;28;19917;-76
2022/09/03 02:21:16;;;;;;;;;;;19.00;80.40;;;;;;5025141;28;19921;-77
2022/09/03 02:23:42;;;;;;;;;;;19.00;81.10;;;;;;5016106;28;20391;-77
2022/09/03 02:26:09;;;;;;;;;;;18.90;81.80;;;;;;4991990;28;19944;-77
2022/09/03 02:28:34;;;;;;;;;;;18.80;81.70;;;;;;5008906;28;19957;-77
2022/09/03 02:31:00;;;;;;;;;;;18.90;82.20;;;;;;4995066;28;19907;-77
2022/09/03 02:33:26;;;;;;;;;;;18.90;81.80;;;;;;4990976;28;20005;-79
2022/09/03 02:35:52;;;;;;;;;;;18.90;82.20;;;;;;4994811;28;19945;-78
2022/09/03 02:38:24;;;;;;;;;;;18.80;83.70;;;;;;4996781;28;19945;-79
2022/09/03 02:40:50;;;;;;;;;;;18.70;84.10;;;;;;4996801;28;20391;-79
2022/09/03 02:43:17;;;;;;;;;;;18.50;85.00;;;;;;4996409;28;20005;-78
2022/09/03 02:45:47;;;;;;;;;;;18.50;86.60;;;;;;4994646;28;19906;-79
2022/09/03 02:48:15;;;;;;;;;;;18.50;86.90;;;;;;4998890;28;19909;-78
2022/09/03 02:50:41;;;;;;;;;;;18.40;90.60;;;;;;5013081;28;19933;-78
2022/09/03 02:53:07;;;;;;;;;;;18.40;90.80;;;;;;4995318;28;20008;-78
2022/09/03 02:55:33;;;;;;;;;;;18.40;91.00;;;;;;4997589;28;19905;-79
2022/09/03 02:57:59;;;;;;;;;;;18.40;92.70;;;;;;4996589;28;19925;-77
2022/09/03 03:00:25;;;;;;;;;;;18.30;91.90;;;;;;5012045;28;19952;-80
2022/09/03 03:02:51;;;;;;;;;;;18.20;91.50;;;;;;5000128;28;19909;-78
2022/09/03 03:05:23;;;;;;;;;;;18.20;93.50;;;;;;4996457;28;19905;-78
2022/09/03 03:07:49;;;;;;;;;;;18.20;93.90;;;;;;5010700;28;19910;-78
2022/09/03 03:10:14;;;;;;;;;;;18.20;94.60;;;;;;4992754;28;19914;-77
2022/09/03 03:12:40;;;;;;;;;;;18.10;94.80;;;;;;4996007;28;19913;-79
2022/09/03 03:15:06;;;;;;;;;;;18.10;95.60;;;;;;5013613;28;19913;-78
2022/09/03 03:17:31;;;;;;;;;;;18.10;95.70;;;;;;4991652;28;19917;-77
2022/09/03 03:19:57;;;;;;;;;;;18.00;95.70;;;;;;4993547;28;20007;-76
2022/09/03 03:22:22;;;;;;;;;;;18.00;97.80;;;;;;5003346;28;20509;-80
2022/09/03 03:24:49;;;;;;;;;;;18.00;98.40;;;;;;5007366;28;19917;-76
2022/09/03 03:27:15;;;;;;;;;;;17.90;98.50;;;;;;4996997;28;19910;-78
2022/09/03 03:29:40;;;;;;;;;;;17.90;99.40;;;;;;4993856;28;19931;-78
2022/09/03 03:32:06;;;;;;;;;;;17.90;99.30;;;;;;4998523;28;19925;-78
2022/09/03 03:34:31;;;;;;;;;;;17.80;99.90;;;;;;5000920;28;19977;-79
2022/09/03 03:36:57;;;;;;;;;;;17.80;99.90;;;;;;5003230;28;19981;-78
2022/09/03 03:39:22;;;;;;;;;;;17.70;99.90;;;;;;5001895;28;19921;-79
2022/09/03 03:41:48;;;;;;;;;;;17.60;99.90;;;;;;5002902;28;19933;-77
2022/09/03 03:44:14;;;;;;;;;;;17.50;99.90;;;;;;5001927;28;19909;-78
2022/09/03 03:46:40;;;;;;;;;;;17.50;99.90;;;;;;5016040;28;19910;-77
2022/09/03 03:49:06;;;;;;;;;;;17.40;99.90;;;;;;5002430;28;19913;-78
2022/09/03 03:51:32;;;;;;;;;;;17.30;99.90;;;;;;5004584;28;19920;-78
2022/09/03 03:53:58;;;;;;;;;;;17.20;99.90;;;;;;5003513;28;19960;-78
2022/09/03 03:56:25;;;;;;;;;;;17.20;99.90;;;;;;5002528;28;19917;-78
2022/09/03 03:58:51;;;;;;;;;;;17.20;99.90;;;;;;5014674;28;19913;-76
2022/09/03 04:01:18;;;;;;;;;;;17.10;99.90;;;;;;5009331;28;19901;-76
2022/09/03 04:03:44;;;;;;;;;;;17.10;99.90;;;;;;5015352;28;19902;-80
2022/09/03 04:06:11;;;;;;;;;;;17.10;99.90;;;;;;5005592;28;19960;-78
2022/09/03 04:08:37;;;;;;;;;;;17.00;99.90;;;;;;4994404;28;19920;-79
2022/09/03 04:11:04;;;;;;;;;;;17.00;99.90;;;;;;4997251;28;19914;-77
2022/09/03 04:13:30;;;;;;;;;;;17.10;99.90;;;;;;5002780;28;19914;-80
2022/09/03 04:16:07;;;;;;;;;;;17.10;99.90;;;;;;4997613;28;19917;-77
2022/09/03 04:18:35;;;;;;;;;;;17.10;99.90;;;;;;5000051;28;19913;-79
2022/09/03 04:21:05;;;;;;;;;;;17.00;99.90;;;;;;4999754;28;19913;-78
2022/09/03 04:23:36;;;;;;;;;;;17.00;99.90;;;;;;5001636;28;19913;-79
2022/09/03 04:26:02;;;;;;;;;;;17.00;99.90;;;;;;5012129;28;19929;-78
2022/09/03 04:28:28;;;;;;;;;;;17.00;99.90;;;;;;5003097;28;19913;-78
2022/09/03 04:30:53;;;;;;;;;;;16.90;99.90;;;;;;5001169;28;19961;-79
2022/09/03 04:33:19;;;;;;;;;;;16.80;99.90;;;;;;4999708;28;19957;-77
2022/09/03 04:35:45;;;;;;;;;;;16.80;99.90;;;;;;5000795;28;19909;-78
2022/09/03 04:38:10;;;;;;;;;;;16.80;99.90;;;;;;5003090;28;19977;-78
2022/09/03 04:40:36;;;;;;;;;;;16.80;99.90;;;;;;5002876;28;19972;-80
2022/09/03 04:43:02;;;;;;;;;;;16.70;99.90;;;;;;4996334;28;19914;-79
2022/09/03 04:45:27;;;;;;;;;;;16.80;99.90;;;;;;5001287;28;19917;-79
2022/09/03 04:47:57;;;;;;;;;;;16.80;99.90;;;;;;5000186;28;19910;-78
2022/09/03 04:50:23;;;;;;;;;;;16.80;99.90;;;;;;5000893;28;19921;-78
2022/09/03 04:52:48;;;;;;;;;;;17.70;99.90;;;;;;4999283;28;20013;-79
2022/09/03 04:55:14;;;;;;;;;;;16.90;99.90;;;;;;5016188;28;19918;-78
2022/09/03 04:57:41;;;;;;;;;;;16.80;99.90;;;;;;5003285;28;19910;-78
2022/09/03 05:00:10;;;;;;;;;;;16.90;99.90;;;;;;4994461;28;19909;-79
2022/09/03 05:02:35;;;;;;;;;;;17.00;99.90;;;;;;5009294;28;19914;-79
2022/09/03 05:05:01;;;;;;;;;;;17.00;99.90;;;;;;5001801;28;19997;-79
2022/09/03 05:07:28;;;;;;;;;;;17.00;99.90;;;;;;4996430;28;19921;-78
2022/09/03 05:09:53;;;;;;;;;;;17.00;99.90;;;;;;4999572;28;20285;-76
2022/09/03 05:12:20;;;;;;;;;;;17.10;99.90;;;;;;4997770;28;20308;-79
2022/09/03 05:14:45;;;;;;;;;;;17.20;99.90;;;;;;5001976;28;19940;-79
2022/09/03 05:17:11;;;;;;;;;;;17.20;99.90;;;;;;4996262;28;19953;-80
2022/09/03 05:19:36;;;;;;;;;;;17.10;99.90;;;;;;5005096;28;19924;-79
2022/09/03 05:22:02;;;;;;;;;;;17.20;99.90;;;;;;5002111;28;20447;-78
2022/09/03 05:24:27;;;;;;;;;;;17.10;99.90;;;;;;5004505;28;19910;-78
2022/09/03 05:26:54;;;;;;;;;;;17.10;99.90;;;;;;5003314;28;19921;-77
2022/09/03 05:29:20;;;;;;;;;;;17.10;99.90;;;;;;4999964;28;19916;-79
2022/09/03 05:31:46;;;;;;;;;;;17.20;99.90;;;;;;5004494;28;19983;-78
2022/09/03 05:34:11;;;;;;;;;;;17.20;99.90;;;;;;5004946;28;19914;-78
2022/09/03 05:36:37;;;;;;;;;;;17.30;99.90;;;;;;5007040;28;19906;-78
2022/09/03 05:39:06;;;;;;;;;;;17.20;99.90;;;;;;5005109;28;19948;-79
2022/09/03 05:41:32;;;;;;;;;;;17.30;99.90;;;;;;5007937;28;19916;-77
2022/09/03 05:43:58;;;;;;;;;;;17.30;99.90;;;;;;5007888;28;19941;-78
2022/09/03 05:46:31;;;;;;;;;;;17.40;99.90;;;;;;5005264;28;19910;-77
2022/09/03 05:48:57;;;;;;;;;;;17.40;99.90;;;;;;5001838;28;19909;-78
2022/09/03 05:51:23;;;;;;;;;;;17.30;99.90;;;;;;5002291;28;19909;-77
2022/09/03 05:53:49;;;;;;;;;;;17.30;99.90;;;;;;5003226;28;19987;-79
2022/09/03 05:56:18;;;;;;;;;;;17.30;99.90;;;;;;5005044;28;19956;-78
2022/09/03 05:58:46;;;;;;;;;;;17.30;99.90;;;;;;5001160;28;19914;-79
2022/09/03 06:01:16;;;;;;;;;;;17.40;99.90;;;;;;4999252;28;19914;-79
2022/09/03 06:03:42;;;;;;;;;;;17.40;99.90;;;;;;4999310;28;20405;-78
2022/09/03 06:06:08;;;;;;;;;;;17.50;99.90;;;;;;5005614;28;19909;-79
2022/09/03 06:08:34;;;;;;;;;;;17.40;99.90;;;;;;5006356;28;19913;-77
2022/09/03 06:11:00;;;;;;;;;;;17.40;99.90;;;;;;4998676;28;19913;-80
2022/09/03 06:13:26;;;;;;;;;;;17.40;99.90;;;;;;5002098;28;19920;-79
2022/09/03 06:15:58;;;;;;;;;;;17.40;99.90;;;;;;5016568;28;20349;-78
2022/09/03 06:18:24;;;;;;;;;;;17.50;99.90;;;;;;4999525;28;19941;-80
2022/09/03 06:20:54;;;;;;;;;;;17.40;99.90;;;;;;5009008;28;19921;-78
2022/09/03 06:23:19;;;;;;;;;;;17.50;99.90;;;;;;5005204;28;19933;-79
2022/09/03 06:25:45;;;;;;;;;;;17.50;99.90;;;;;;5008904;28;19910;-79
2022/09/03 06:28:10;;;;;;;;;;;17.40;99.90;;;;;;5015330;28;19897;-77
2022/09/03 06:30:36;;;;;;;;;;;17.40;99.90;;;;;;5014016;28;19898;-77
2022/09/03 06:33:01;;;;;;;;;;;17.50;99.90;;;;;;5005741;28;20350;-78
2022/09/03 06:35:27;;;;;;;;;;;17.60;99.90;;;;;;5003067;28;19913;-78
2022/09/03 06:37:53;;;;;;;;;;;17.50;99.90;;;;;;5013523;28;19914;-79
2022/09/03 06:40:21;;;;;;;;;;;17.60;99.90;;;;;;4998534;28;19909;-80
2022/09/03 06:42:54;;;;;;;;;;;17.60;99.90;;;;;;5000910;28;19972;-79
2022/09/03 06:45:20;;;;;;;;;;;17.60;99.90;;;;;;5020178;28;19900;-77
2022/09/03 06:47:45;;;;;;;;;;;17.70;99.90;;;;;;5013531;28;19921;-79
2022/09/03 06:50:11;;;;;;;;;;;17.70;99.90;;;;;;5014747;28;19905;-77
2022/09/03 06:52:36;;;;;;;;;;;17.80;99.90;;;;;;5005963;28;19913;-77
2022/09/03 06:55:02;;;;;;;;;;;17.80;99.90;;;;;;5023569;28;19922;-80
2022/09/03 06:57:28;;;;;;;;;;;17.80;99.90;;;;;;4999702;28;19914;-79
2022/09/03 06:59:54;;;;;;;;;;;18.40;99.90;;;;;;4998132;28;19910;-80
2022/09/03 07:02:21;;;;;;;;;;;17.80;99.90;;;;;;4999183;28;19918;-76
2022/09/03 07:04:48;;;;;;;;;;;17.90;99.90;;;;;;4997993;28;19993;-79
2022/09/03 07:07:15;;;;;;;;;;;17.90;99.90;;;;;;4995084;28;20333;-79
2022/09/03 07:09:40;;;;;;;;;;;17.90;99.90;;;;;;5000989;28;20387;-79
2022/09/03 07:12:06;;;;;;;;;;;17.90;99.90;;;;;;4997415;28;19913;-79
2022/09/03 07:14:32;;;;;;;;;;;18.10;99.90;;;;;;4995617;28;19918;-78
2022/09/03 07:16:57;;;;;;;;;;;20.20;99.90;;;;;;5002595;28;19952;-78
2022/09/03 07:19:23;;;;;;;;;;;18.20;99.90;;;;;;4992301;28;19913;-80
2022/09/03 07:21:48;;;;;;;;;;;18.40;99.90;;;;;;5006248;28;19949;-79
2022/09/03 07:24:14;;;;;;;;;;;18.30;99.90;;;;;;5003644;28;19925;-80
2022/09/03 07:26:42;;;;;;;;;;;18.30;99.90;;;;;;5001156;28;19913;-79
2022/09/03 07:29:08;;;;;;;;;;;18.40;99.90;;;;;;5003106;28;20383;-78
2022/09/03 07:31:37;;;;;;;;;;;18.50;99.90;;;;;;4995151;28;19937;-80
2022/09/03 07:34:05;;;;;;;;;;;18.60;99.90;;;;;;4999622;28;19968;-79
2022/09/03 07:36:34;;;;;;;;;;;18.70;99.90;;;;;;5002024;28;19913;-79
2022/09/03 07:38:59;;;;;;;;;;;19.80;99.90;;;;;;4999213;28;19917;-78
2022/09/03 07:41:25;;;;;;;;;;;18.80;99.90;;;;;;5000616;28;19910;-79
2022/09/03 07:43:51;;;;;;;;;;;19.20;99.90;;;;;;5000482;28;19913;-76
2022/09/03 07:46:21;;;;;;;;;;;19.50;99.90;;;;;;5004157;28;19920;-79
2022/09/03 07:48:47;;;;;;;;;;;19.40;99.90;;;;;;5001032;28;19913;-78
2022/09/03 07:51:13;;;;;;;;;;;19.30;99.90;;;;;;4989117;28;19936;-78
2022/09/03 07:53:39;;;;;;;;;;;19.30;99.90;;;;;;5010518;28;20331;-78
2022/09/03 07:56:05;;;;;;;;;;;19.30;99.90;;;;;;4999919;28;19910;-78
2022/09/03 07:58:32;;;;;;;;;;;19.20;99.90;;;;;;5003982;28;19989;-78
2022/09/03 08:00:58;;;;;;;;;;;19.30;99.90;;;;;;5020523;28;19933;-78
2022/09/03 08:03:23;;;;;;;;;;;19.40;99.90;;;;;;5006718;28;19913;-78
2022/09/03 08:05:49;;;;;;;;;;;19.20;99.90;;;;;;5010112;28;19906;-77
2022/09/03 08:08:16;;;;;;;;;;;19.10;99.90;;;;;;5007946;28;19902;-78
2022/09/03 08:10:42;;;;;;;;;;;19.10;99.90;;;;;;5012092;28;19932;-77
2022/09/03 08:13:09;;;;;;;;;;;19.10;99.90;;;;;;5013908;28;19921;-77
2022/09/03 08:15:39;;;;;;;;;;;19.20;99.90;;;;;;5011170;28;19929;-77
2022/09/03 08:18:04;;;;;;;;;;;19.10;99.90;;;;;;5010567;28;19921;-76
2022/09/03 08:20:30;;;;;;;;;;;19.20;99.90;;;;;;5017248;28;19902;-78
2022/09/03 08:23:05;;;;;;;;;;;19.30;99.90;;;;;;5010950;28;19926;-77
2022/09/03 08:25:30;;;;;;;;;;;19.40;99.90;;;;;;5014320;28;19925;-78
2022/09/03 08:27:59;;;;;;;;;;;19.50;99.90;;;;;;5012195;28;19909;-77
2022/09/03 08:30:26;;;;;;;;;;;19.60;99.90;;;;;;5008011;28;19928;-78
2022/09/03 08:32:52;;;;;;;;;;;19.80;99.90;;;;;;5003812;28;19945;-77
2022/09/03 08:35:17;;;;;;;;;;;19.90;99.90;;;;;;5001700;28;19917;-80
2022/09/03 08:37:42;;;;;;;;;;;19.80;99.90;;;;;;5024356;28;19913;-78
2022/09/03 08:40:08;;;;;;;;;;;19.90;99.90;;;;;;5005805;28;20026;-77
2022/09/03 08:42:37;;;;;;;;;;;20.00;99.90;;;;;;5007898;28;19942;-78
2022/09/03 08:45:06;;;;;;;;;;;19.80;99.90;;;;;;5027073;28;19913;-77
2022/09/03 08:47:33;;;;;;;;;;;19.80;99.90;;;;;;5024714;28;19914;-78
2022/09/03 08:50:02;;;;;;;;;;;19.80;99.90;;;;;;5007052;28;19917;-77
2022/09/03 08:52:31;;;;;;;;;;;19.80;99.90;;;;;;5008510;28;20303;-79
2022/09/03 08:55:00;;;;;;;;;;;19.80;99.90;;;;;;5010314;28;19918;-78
2022/09/03 08:57:26;;;;;;;;;;;19.70;99.90;;;;;;5011875;28;19910;-79
2022/09/03 08:59:53;;;;;;;;;;;19.70;99.90;;;;;;4994526;28;19917;-78
2022/09/03 09:02:27;;;;;;;;;;;19.70;99.90;;;;;;4999466;28;19956;-79
2022/09/03 09:04:53;;;;;;;;;;;19.70;99.90;;;;;;4998742;28;19977;-80
2022/09/03 09:07:37;;;;;;;;;;;19.70;99.90;;;;;;5015539;28;19933;-77
2022/09/03 09:10:06;;;;;;;;;;;19.70;99.90;;;;;;5013849;28;19992;-82
2022/09/03 09:12:37;;;;;;;;;;;19.60;99.90;;;;;;4996325;28;20380;-77
2022/09/03 09:15:07;;;;;;;;;;;19.70;99.90;;;;;;5007592;28;19917;-80
2022/09/03 09:17:36;;;;;;;;;;;19.80;99.90;;;;;;4995570;28;19914;-81
2022/09/03 09:20:10;;;;;;;;;;;19.90;99.90;;;;;;4998003;28;19916;-82
2022/09/03 09:22:53;;;;;;;;;;;19.90;99.90;;;;;;4999037;28;19996;-82
2022/09/03 09:25:20;;;;;;;;;;;20.00;99.90;;;;;;4995623;28;19953;-82
2022/09/03 09:27:56;;;;;;;;;;;20.10;99.90;;;;;;4991990;28;19910;-81
2022/09/03 09:30:22;;;;;;;;;;;20.10;99.90;;;;;;4988542;28;19913;-80
2022/09/03 09:32:47;;;;;;;;;;;20.30;99.90;;;;;;4993079;28;19909;-82
2022/09/03 09:35:14;;;;;;;;;;;20.50;99.90;;;;;;4989068;28;19914;-83
2022/09/03 09:37:47;;;;;;;;;;;20.50;99.90;;;;;;5001318;28;20328;-80
2022/09/03 09:40:24;;;;;;;;;;;20.60;99.90;;;;;;4992558;28;19924;-82
2022/09/03 09:42:50;;;;;;;;;;;20.70;99.90;;;;;;4991104;28;19952;-80
2022/09/03 09:45:16;;;;;;;;;;;20.70;99.90;;;;;;4994364;28;20340;-79
2022/09/03 09:47:41;;;;;;;;;;;20.80;99.90;;;;;;4994469;28;19952;-79
2022/09/03 09:50:19;;;;;;;;;;;22.30;99.90;;;;;;4998564;28;20008;-82
2022/09/03 09:52:45;;;;;;;;;;;21.00;99.90;;;;;;5007665;28;19925;-84
2022/09/03 09:55:17;;;;;;;;;;;21.00;99.90;;;;;;4995157;28;19910;-80
2022/09/03 09:57:42;;;;;;;;;;;21.00;99.90;;;;;;4986754;28;19944;-79
2022/09/03 10:00:12;;;;;;;;;;;21.00;99.90;;;;;;4991567;28;19918;-82
2022/09/03 10:02:58;;;;;;;;;;;21.00;99.90;;;;;;4990079;28;19983;-81
2022/09/03 10:05:39;;;;;;;;;;;21.00;99.90;;;;;;4988250;28;20012;-83
2022/09/03 10:08:20;;;;;;;;;;;21.10;99.90;;;;;;4991414;28;20432;-81
2022/09/03 10:10:49;;;;;;;;;;;21.10;99.90;;;;;;4986026;28;19918;-82
2022/09/03 10:13:22;;;;;;;;;;;21.30;99.90;;;;;;4991781;28;20133;-82
2022/09/03 10:15:49;;;;;;;;;;;21.30;99.90;;;;;;4990316;28;19957;-82
2022/09/03 10:18:27;;;;;;;;;;;21.40;99.90;;;;;;5004588;28;19956;-80
2022/09/03 10:21:09;;;;;;;;;;;23.50;99.90;;;;;;5006173;28;19957;-80
2022/09/03 10:23:56;;;;;;;;;;;22.00;99.90;;;;;;4992024;28;19909;-80
2022/09/03 10:26:28;;;;;;;;;;;22.00;99.90;;;;;;4997164;28;19937;-80
2022/09/03 10:28:56;;;;;;;;;;;22.30;99.90;;;;;;4991022;28;19914;-78
2022/09/03 10:31:32;;;;;;;;;;;22.40;99.90;;;;;;5007794;28;19921;-81
2022/09/03 10:34:05;;;;;;;;;;;22.70;99.90;;;;;;5014974;28;20376;-80
2022/09/03 10:36:37;;;;;;;;;;;22.70;99.90;;;;;;4998246;28;19909;-80
2022/09/03 10:39:14;;;;;;;;;;;22.60;99.90;;;;;;4996026;28;19949;-81
2022/09/03 10:41:50;;;;;;;;;;;22.70;99.90;;;;;;5011927;28;19918;-82
2022/09/03 10:44:25;;;;;;;;;;;22.70;99.90;;;;;;4999071;28;19920;-82
2022/09/03 10:46:50;;;;;;;;;;;23.20;99.90;;;;;;4993962;28;19913;-81
2022/09/03 10:49:51;;;;;;;;;;;23.20;99.90;;;;;;4993138;28;19914;-81
2022/09/03 10:52:29;;;;;;;;;;;23.60;99.90;;;;;;4954414;28;19976;-82
2022/09/03 10:55:01;;;;;;;;;;;23.60;99.90;;;;;;4990893;28;19914;-81
2022/09/03 10:57:43;;;;;;;;;;;23.50;99.90;;;;;;5008994;28;19910;-81
2022/09/03 11:00:11;;;;;;;;;;;23.40;99.90;;;;;;4993694;28;19914;-81
2022/09/03 11:02:52;;;;;;;;;;;23.40;99.90;;;;;;4993663;28;20004;-84
2022/09/03 11:05:20;;;;;;;;;;;23.40;99.90;;;;;;5005949;28;19913;-81
2022/09/03 11:07:52;;;;;;;;;;;23.40;99.90;;;;;;4993028;28;19910;-80
2022/09/03 11:10:25;;;;;;;;;;;23.70;99.90;;;;;;5010354;28;20000;-83
2022/09/03 11:12:58;;;;;;;;;;;24.10;99.90;;;;;;4991793;28;20004;-81
2022/09/03 11:15:31;;;;;;;;;;;24.10;99.90;;;;;;4993237;28;19924;-81
2022/09/03 11:17:59;;;;;;;;;;;24.10;99.90;;;;;;5012780;28;19937;-78
2022/09/03 11:20:25;;;;;;;;;;;24.20;99.90;;;;;;5009689;28;19917;-84
2022/09/03 11:23:01;;;;;;;;;;;24.40;99.90;;;;;;4996335;28;19910;-81
2022/09/03 11:25:32;;;;;;;;;;;24.60;99.90;;;;;;5014353;28;19906;-81
2022/09/03 11:28:07;;;;;;;;;;;24.70;99.90;;;;;;5009070;28;19953;-82
2022/09/03 11:30:51;;;;;;;;;;;24.80;99.90;;;;;;5010958;28;19956;-81
2022/09/03 11:33:18;;;;;;;;;;;24.80;99.90;;;;;;5016480;28;20008;-82
2022/09/03 11:35:44;;;;;;;;;;;24.90;99.90;;;;;;4999866;28;20040;-82
2022/09/03 11:38:17;;;;;;;;;;;24.80;99.90;;;;;;4993364;28;19917;-81
2022/09/03 11:41:00;;;;;;;;;;;25.00;99.90;;;;;;5012624;28;19914;-81
2022/09/03 11:43:32;;;;;;;;;;;24.80;99.90;;;;;;5009947;28;20368;-80
2022/09/03 11:46:13;;;;;;;;;;;24.20;99.90;;;;;;5009074;28;19909;-79
2022/09/03 11:48:38;;;;;;;;;;;24.20;99.90;;;;;;5008715;28;19909;-83
2022/09/03 11:51:16;;;;;;;;;;;24.50;99.90;;;;;;5013864;28;19936;-83
2022/09/03 11:53:52;;;;;;;;;;;24.40;99.90;;;;;;4999696;28;19937;-83
2022/09/03 11:56:18;;;;;;;;;;;24.50;99.90;;;;;;4991707;28;19910;-82
2022/09/03 11:58:44;;;;;;;;;;;24.50;99.90;;;;;;5001736;28;19916;-82
2022/09/03 12:01:11;;;;;;;;;;;24.50;99.90;;;;;;4998094;28;19914;-82
2022/09/03 12:03:42;;;;;;;;;;;24.50;99.80;;;;;;5000376;28;19920;-82
2022/09/03 12:06:14;;;;;;;;;;;24.30;99.90;;;;;;5000310;28;19924;-80
2022/09/03 12:09:05;;;;;;;;;;;24.70;99.90;;;;;;5014284;28;19913;-85
2022/09/03 12:12:26;;;;;;;;;;;24.90;99.80;;;;;;4995352;28;19910;-84
2022/09/03 12:14:25;;;;;;;;;;;;;;;;;;4996040;28;19920;-83
2022/09/03 12:16:58;;;;;;;;;;;25.20;98.80;;;;;;5008534;28;19944;-81
2022/09/03 12:20:06;;;;;;;;;;;25.10;98.90;;;;;;5009007;28;19953;-82
2022/09/03 12:22:37;;;;;;;;;;;24.80;99.50;;;;;;4977682;28;19909;-81
2022/09/03 12:25:49;;;;;;;;;;;24.30;99.90;;;;;;4984952;28;19910;-84
2022/09/03 12:28:23;;;;;;;;;;;24.10;99.90;;;;;;4985886;28;19918;-82
2022/09/03 12:31:04;;;;;;;;;;;24.00;99.90;;;;;;4986543;28;19910;-80
2022/09/03 12:33:39;;;;;;;;;;;23.90;99.90;;;;;;4993152;28;20012;-83
2022/09/03 12:36:08;;;;;;;;;;;23.80;99.90;;;;;;5017261;22;19949;-84
2022/09/03 12:38:34;;;;;;;;;;;23.80;99.90;;;;;;4970536;28;19921;-81
2022/09/03 12:40:59;;;;;;;;;;;23.70;99.90;;;;;;4980753;28;19910;-81
2022/09/03 12:43:28;;;;;;;;;;;23.70;99.90;;;;;;4975446;28;21471;-82
2022/09/03 12:45:54;;;;;;;;;;;23.50;99.90;;;;;;4973685;28;19914;-80
2022/09/03 12:48:21;;;;;;;;;;;23.50;99.90;;;;;;4993985;28;20437;-81
2022/09/03 12:50:47;;;;;;;;;;;23.50;99.90;;;;;;4987893;28;19909;-81
2022/09/03 12:53:19;;;;;;;;;;;23.50;99.90;;;;;;4988529;28;20039;-82
2022/09/03 12:55:50;;;;;;;;;;;23.50;99.90;;;;;;4969235;28;19913;-83
2022/09/03 12:58:21;;;;;;;;;;;23.40;99.90;;;;;;4980594;28;19916;-80
2022/09/03 13:00:55;;;;;;;;;;;23.30;99.90;;;;;;4967776;28;20010;-81
2022/09/03 13:03:33;;;;;;;;;;;23.20;99.90;;;;;;4983770;28;19913;-83
2022/09/03 13:06:06;;;;;;;;;;;23.10;99.90;;;;;;4966813;28;19918;-81
2022/09/03 13:08:37;;;;;;;;;;;22.90;99.90;;;;;;4973395;28;19913;-85
2022/09/03 13:11:04;;;;;;;;;;;22.80;99.90;;;;;;4970892;28;20161;-82
2022/09/03 13:13:35;;;;;;;;;;;22.50;99.90;;;;;;4971292;28;19914;-82
2022/09/03 13:16:00;;;;;;;;;;;22.50;99.90;;;;;;4995500;28;19929;-82
2022/09/03 13:18:37;;;;;;;;;;;22.40;99.90;;;;;;4991665;28;19910;-81
2022/09/03 13:21:10;;;;;;;;;;;22.30;99.90;;;;;;4973477;28;19905;-81
2022/09/03 13:23:48;;;;;;;;;;;22.00;99.90;;;;;;4984332;28;19909;-80
2022/09/03 13:26:14;;;;;;;;;;;22.00;99.90;;;;;;4969695;28;19917;-80
2022/09/03 13:28:43;;;;;;;;;;;21.80;99.90;;;;;;4988855;28;19928;-81
2022/09/03 13:31:29;;;;;;;;;;;21.70;99.90;;;;;;4975333;28;19910;-83
2022/09/03 13:34:16;;;;;;;;;;;21.70;99.90;;;;;;4990697;28;20059;-82
2022/09/03 13:36:46;;;;;;;;;;;21.70;99.90;;;;;;4995558;28;19914;-82
2022/09/03 13:39:19;;;;;;;;;;;21.60;99.90;;;;;;4996563;28;20008;-80
2022/09/03 13:41:52;;;;;;;;;;;21.60;99.90;;;;;;4985623;28;19993;-82
2022/09/03 13:44:36;;;;;;;;;;;21.50;99.90;;;;;;4996852;28;19916;-82
2022/09/03 13:47:08;;;;;;;;;;;21.40;99.90;;;;;;4998537;28;19916;-84
2022/09/03 13:52:43;;;;;;;;;;;20.50;99.90;;;;;;4993296;28;19937;-85
2022/09/03 13:55:22;;;;;;;;;;;20.50;99.90;;;;;;4995402;28;19917;-88
2022/09/03 13:57:53;;;;;;;;;;;20.50;99.90;;;;;;4975017;28;19945;-83
2022/09/03 14:00:45;;;;;;;;;;;20.60;99.90;;;;;;4995344;28;19910;-82
2022/09/03 14:03:13;;;;;;;;;;;20.80;99.90;;;;;;4974533;28;20382;-81
2022/09/03 14:05:38;;;;;;;;;;;20.90;99.90;;;;;;4990836;28;20370;-83
2022/09/03 14:08:12;;;;;;;;;;;21.00;99.90;;;;;;4992451;28;19963;-82
2022/09/03 14:10:48;;;;;;;;;;;21.10;99.90;;;;;;4974511;28;19920;-80
2022/09/03 14:13:32;;;;;;;;;;;21.00;99.90;;;;;;4979209;28;19975;-81
2022/09/03 14:16:04;;;;;;;;;;;21.10;99.90;;;;;;4999579;22;19952;-82
2022/09/03 14:18:51;;;;;;;;;;;21.20;99.90;;;;;;4990344;28;19906;-81
2022/09/03 14:21:19;;;;;;;;;;;21.80;99.90;;;;;;4969599;28;19913;-80
2022/09/03 14:23:48;;;;;;;;;;;22.00;99.90;;;;;;4981937;28;19910;-82
2022/09/03 14:26:19;;;;;;;;;;;22.00;99.90;;;;;;4989174;28;19914;-81
2022/09/03 14:28:48;;;;;;;;;;;22.00;99.90;;;;;;4982957;28;19910;-82
2022/09/03 14:31:26;;;;;;;;;;;22.10;99.90;;;;;;4975114;28;20368;-82
2022/09/03 14:34:01;;;;;;;;;;;22.10;99.90;;;;;;4977156;28;19944;-83
2022/09/03 14:36:27;;;;;;;;;;;22.30;99.90;;;;;;4993019;28;20281;-83
2022/09/03 14:38:55;;;;;;;;;;;22.30;99.90;;;;;;4985253;28;19913;-81